createdAt,value
2016-05-18T00:00:02.788Z,0
2016-05-18T00:01:02.603Z,0
2016-05-18T00:02:02.777Z,0
2016-05-18T00:03:02.781Z,0
2016-05-18T00:04:02.658Z,0
2016-05-18T00:05:02.817Z,0
2016-05-18T00:06:02.820Z,0
2016-05-18T00:07:02.650Z,0
2016-05-18T00:08:03.359Z,0
2016-05-18T00:09:02.859Z,0
2016-05-18T00:10:02.862Z,0
2016-05-18T00:11:02.708Z,0
2016-05-18T00:12:02.899Z,0
2016-05-18T00:13:02.885Z,0
2016-05-18T00:14:02.888Z,0
2016-05-18T00:15:02.891Z,0
2016-05-18T00:16:02.956Z,0
2016-05-18T00:17:02.756Z,0
2016-05-18T00:18:02.930Z,0
2016-05-18T00:19:02.933Z,0
2016-05-18T00:20:03.154Z,0
2016-05-18T00:21:02.798Z,0
2016-05-18T00:22:02.972Z,0
2016-05-18T00:23:02.818Z,0
2016-05-18T00:24:02.837Z,0
2016-05-18T00:25:03.042Z,0
2016-05-18T00:26:02.999Z,0
2016-05-18T00:27:02.861Z,0
2016-05-18T00:28:03.019Z,0
2016-05-18T00:29:03.022Z,0
2016-05-18T00:30:02.869Z,0
2016-05-18T00:31:02.919Z,0
2016-05-18T00:32:03.046Z,0
2016-05-18T00:33:03.065Z,0
2016-05-18T00:34:03.083Z,0
2016-05-18T00:35:03.069Z,0
2016-05-18T00:36:03.119Z,0
2016-05-18T00:37:03.122Z,0
2016-05-18T00:38:02.983Z,0
2016-05-18T00:39:03.112Z,0
2016-05-18T00:40:02.818Z,0
2016-05-18T00:41:03.132Z,0
2016-05-18T00:42:02.995Z,0
2016-05-18T00:43:03.013Z,0
2016-05-18T00:44:03.156Z,0
2016-05-18T00:45:03.003Z,0
2016-05-18T00:46:03.193Z,0
2016-05-18T00:47:03.212Z,0
2016-05-18T00:48:03.198Z,0
2016-05-18T00:49:03.217Z,0
2016-05-18T00:50:03.250Z,0
2016-05-18T00:51:03.254Z,0
2016-05-18T00:52:02.928Z,0
2016-05-18T00:53:02.946Z,0
2016-05-18T00:54:03.277Z,0
2016-05-18T00:55:03.123Z,0
2016-05-18T00:56:03.298Z,0
2016-05-18T00:57:03.128Z,0
2016-05-18T00:58:03.131Z,0
2016-05-18T00:59:03.306Z,0
2016-05-18T01:00:03.309Z,0
2016-05-18T01:01:03.186Z,0
2016-05-18T01:02:03.314Z,0
2016-05-18T01:03:03.348Z,0
2016-05-18T01:04:03.194Z,0
2016-05-18T01:05:03.213Z,0
2016-05-18T01:06:03.372Z,0
2016-05-18T01:07:03.406Z,0
2016-05-18T01:08:03.689Z,0
2016-05-18T01:09:03.239Z,0
2016-05-18T01:10:03.414Z,0
2016-05-18T01:11:03.416Z,0
2016-05-18T01:12:03.435Z,0
2016-05-18T01:13:03.281Z,0
2016-05-18T01:14:03.441Z,0
2016-05-18T01:15:03.443Z,0
2016-05-18T01:16:03.476Z,0
2016-05-18T01:17:03.323Z,0
2016-05-18T01:18:03.357Z,0
2016-05-18T01:19:03.485Z,0
2016-05-18T01:20:03.206Z,0
2016-05-18T01:21:03.194Z,0
2016-05-18T01:22:03.509Z,0
2016-05-18T01:23:03.730Z,0
2016-05-18T01:24:03.389Z,0
2016-05-18T01:25:03.375Z,0
2016-05-18T01:26:03.551Z,0
2016-05-18T01:27:03.428Z,0
2016-05-18T01:28:03.572Z,0
2016-05-18T01:29:03.418Z,0
2016-05-18T01:30:03.592Z,0
2016-05-18T01:31:03.439Z,0
2016-05-18T01:32:03.613Z,0
2016-05-18T01:33:03.461Z,0
2016-05-18T01:34:03.650Z,0
2016-05-18T01:35:03.466Z,0
2016-05-18T01:36:03.514Z,0
2016-05-18T01:37:03.642Z,0
2016-05-18T01:38:03.739Z,0
2016-05-18T01:39:03.679Z,0
2016-05-18T01:40:03.385Z,0
2016-05-18T01:41:03.700Z,0
2016-05-18T01:42:03.703Z,0
2016-05-18T01:43:03.533Z,0
2016-05-18T01:44:03.568Z,0
2016-05-18T01:45:03.743Z,0
2016-05-18T01:46:03.729Z,0
2016-05-18T01:47:03.748Z,0
2016-05-18T01:48:03.751Z,0
2016-05-18T01:49:03.785Z,0
2016-05-18T01:50:03.771Z,0
2016-05-18T01:51:03.774Z,0
2016-05-18T01:52:03.636Z,0
2016-05-18T01:53:03.498Z,0
2016-05-18T01:54:03.829Z,0
2016-05-18T01:55:03.800Z,0
2016-05-18T01:56:03.834Z,0
2016-05-18T01:57:03.853Z,0
2016-05-18T01:58:03.856Z,0
2016-05-18T01:59:03.842Z,0
2016-05-18T02:00:03.861Z,0
2016-05-18T02:01:03.879Z,0
2016-05-18T02:02:03.881Z,0
2016-05-18T02:03:03.901Z,0
2016-05-18T02:04:03.887Z,0
2016-05-18T02:05:03.921Z,0
2016-05-18T02:06:03.908Z,0
2016-05-18T02:07:03.942Z,0
2016-05-18T02:08:03.835Z,0
2016-05-18T02:09:03.963Z,0
2016-05-18T02:10:03.935Z,0
2016-05-18T02:11:03.983Z,0
2016-05-18T02:12:03.956Z,0
2016-05-18T02:13:03.974Z,0
2016-05-18T02:14:03.835Z,0
2016-05-18T02:15:03.855Z,0
2016-05-18T02:16:03.841Z,0
2016-05-18T02:17:03.875Z,0
2016-05-18T02:18:04.034Z,0
2016-05-18T02:19:03.896Z,0
2016-05-18T02:20:04.040Z,0
2016-05-18T02:21:04.073Z,0
2016-05-18T02:22:04.045Z,0
2016-05-18T02:23:04.220Z,0
2016-05-18T02:24:04.082Z,0
2016-05-18T02:25:04.100Z,0
2016-05-18T02:26:04.087Z,0
2016-05-18T02:27:04.121Z,0
2016-05-18T02:28:04.108Z,0
2016-05-18T02:29:03.970Z,0
2016-05-18T02:30:04.128Z,0
2016-05-18T02:31:03.992Z,0
2016-05-18T02:32:04.134Z,0
2016-05-18T02:33:04.168Z,0
2016-05-18T02:34:04.186Z,0
2016-05-18T02:35:04.189Z,0
2016-05-18T02:36:04.176Z,0
2016-05-18T02:37:04.211Z,0
2016-05-18T02:38:03.885Z,0
2016-05-18T02:39:04.075Z,0
2016-05-18T02:40:04.250Z,0
2016-05-18T02:41:04.064Z,0
2016-05-18T02:42:04.239Z,0
2016-05-18T02:43:04.242Z,0
2016-05-18T02:44:04.119Z,0
2016-05-18T02:45:04.263Z,0
2016-05-18T02:46:04.296Z,0
2016-05-18T02:47:04.285Z,0
2016-05-18T02:48:04.130Z,0
2016-05-18T02:49:04.165Z,0
2016-05-18T02:50:04.338Z,0
2016-05-18T02:51:04.342Z,0
2016-05-18T02:52:04.329Z,0
2016-05-18T02:53:04.471Z,0
2016-05-18T02:54:04.335Z,0
2016-05-18T02:55:04.212Z,0
2016-05-18T02:56:04.214Z,0
2016-05-18T02:57:04.404Z,0
2016-05-18T02:58:04.392Z,0
2016-05-18T02:59:04.254Z,0
2016-05-18T03:00:04.397Z,0
2016-05-18T03:01:04.275Z,0
2016-05-18T03:02:04.434Z,0
2016-05-18T03:03:04.436Z,0
2016-05-18T03:04:04.455Z,0
2016-05-18T03:05:04.442Z,0
2016-05-18T03:06:04.445Z,0
2016-05-18T03:07:04.478Z,0
2016-05-18T03:08:04.950Z,0
2016-05-18T03:09:04.483Z,0
2016-05-18T03:10:04.486Z,0
2016-05-18T03:11:04.364Z,0
2016-05-18T03:12:04.491Z,0
2016-05-18T03:13:04.542Z,0
2016-05-18T03:14:04.544Z,0
2016-05-18T03:15:04.562Z,0
2016-05-18T03:16:04.549Z,0
2016-05-18T03:17:04.568Z,0
2016-05-18T03:18:04.571Z,0
2016-05-18T03:19:04.588Z,0
2016-05-18T03:20:04.592Z,0
2016-05-18T03:21:04.141Z,0
2016-05-18T03:22:04.612Z,0
2016-05-18T03:23:04.615Z,0
2016-05-18T03:24:04.648Z,0
2016-05-18T03:25:04.496Z,0
2016-05-18T03:26:04.482Z,0
2016-05-18T03:27:04.642Z,0
2016-05-18T03:28:04.676Z,0
2016-05-18T03:29:04.662Z,0
2016-05-18T03:30:04.681Z,0
2016-05-18T03:31:04.668Z,0
2016-05-18T03:32:04.702Z,0
2016-05-18T03:33:04.689Z,0
2016-05-18T03:34:04.551Z,0
2016-05-18T03:35:04.584Z,0
2016-05-18T03:36:04.728Z,0
2016-05-18T03:37:04.747Z,0
2016-05-18T03:38:04.717Z,0
2016-05-18T03:39:04.753Z,0
2016-05-18T03:40:04.801Z,0
2016-05-18T03:41:04.788Z,4
2016-05-18T03:42:04.650Z,4
2016-05-18T03:43:04.778Z,4
2016-05-18T03:44:04.828Z,4
2016-05-18T03:45:04.784Z,4
2016-05-18T03:46:04.677Z,0
2016-05-18T03:47:04.821Z,0
2016-05-18T03:48:04.855Z,0
2016-05-18T03:49:04.872Z,0
2016-05-18T03:50:04.719Z,4
2016-05-18T03:51:04.847Z,4
2016-05-18T03:52:04.724Z,4
2016-05-18T03:53:04.946Z,4
2016-05-18T03:54:04.885Z,8
2016-05-18T03:55:04.921Z,4
2016-05-18T03:56:04.907Z,4
2016-05-18T03:57:04.910Z,4
2016-05-18T03:58:04.788Z,4
2016-05-18T03:59:04.931Z,8
2016-05-18T04:00:04.981Z,8
2016-05-18T04:01:04.951Z,4
2016-05-18T04:02:04.986Z,4
2016-05-18T04:03:04.973Z,8
2016-05-18T04:04:04.992Z,12
2016-05-18T04:05:05.009Z,8
2016-05-18T04:06:05.012Z,12
2016-05-18T04:07:05.015Z,12
2016-05-18T04:08:05.189Z,8
2016-05-18T04:09:04.880Z,12
2016-05-18T04:10:05.023Z,12
2016-05-18T04:11:05.056Z,16
2016-05-18T04:12:05.044Z,12
2016-05-18T04:13:04.766Z,16
2016-05-18T04:14:04.753Z,16
2016-05-18T04:15:04.786Z,16
2016-05-18T04:16:04.789Z,16
2016-05-18T04:17:04.822Z,20
2016-05-18T04:18:04.935Z,20
2016-05-18T04:19:05.141Z,20
2016-05-18T04:20:04.955Z,24
2016-05-18T04:21:05.131Z,20
2016-05-18T04:22:05.149Z,24
2016-05-18T04:23:05.464Z,24
2016-05-18T04:24:05.170Z,24
2016-05-18T04:25:05.173Z,24
2016-05-18T04:26:05.035Z,28
2016-05-18T04:27:05.053Z,28
2016-05-18T04:28:05.197Z,28
2016-05-18T04:29:05.215Z,28
2016-05-18T04:30:05.232Z,28
2016-05-18T04:31:05.267Z,28
2016-05-18T04:32:05.222Z,28
2016-05-18T04:33:05.100Z,28
2016-05-18T04:34:05.243Z,32
2016-05-18T04:35:05.278Z,32
2016-05-18T04:36:05.265Z,36
2016-05-18T04:37:05.127Z,32
2016-05-18T04:38:05.239Z,36
2016-05-18T04:39:05.148Z,36
2016-05-18T04:40:05.323Z,36
2016-05-18T04:41:05.325Z,36
2016-05-18T04:42:05.312Z,36
2016-05-18T04:43:05.174Z,32
2016-05-18T04:44:05.349Z,36
2016-05-18T04:45:05.336Z,36
2016-05-18T04:46:05.370Z,36
2016-05-18T04:47:05.357Z,32
2016-05-18T04:48:05.391Z,36
2016-05-18T04:49:05.393Z,40
2016-05-18T04:50:05.396Z,40
2016-05-18T04:51:05.430Z,40
2016-05-18T04:52:05.261Z,40
2016-05-18T04:53:05.608Z,40
2016-05-18T04:54:05.282Z,40
2016-05-18T04:55:05.457Z,40
2016-05-18T04:56:05.302Z,36
2016-05-18T04:57:05.462Z,40
2016-05-18T04:58:05.323Z,40
2016-05-18T04:59:05.468Z,40
2016-05-18T05:00:05.501Z,40
2016-05-18T05:01:05.473Z,40
2016-05-18T05:02:05.523Z,40
2016-05-18T05:03:05.353Z,40
2016-05-18T05:04:05.387Z,40
2016-05-18T05:05:05.514Z,40
2016-05-18T05:06:05.533Z,44
2016-05-18T05:07:05.551Z,44
2016-05-18T05:08:05.569Z,44
2016-05-18T05:09:05.416Z,44
2016-05-18T05:10:05.591Z,44
2016-05-18T05:11:05.421Z,44
2016-05-18T05:12:05.439Z,44
2016-05-18T05:13:05.598Z,44
2016-05-18T05:14:05.617Z,44
2016-05-18T05:15:05.463Z,44
2016-05-18T05:16:05.638Z,44
2016-05-18T05:17:05.344Z,44
2016-05-18T05:18:05.534Z,44
2016-05-18T05:19:05.647Z,44
2016-05-18T05:20:05.696Z,44
2016-05-18T05:21:05.666Z,40
2016-05-18T05:22:05.529Z,44
2016-05-18T05:23:06.172Z,44
2016-05-18T05:24:05.566Z,44
2016-05-18T05:25:05.710Z,44
2016-05-18T05:26:05.727Z,44
2016-05-18T05:27:05.402Z,44
2016-05-18T05:28:05.592Z,44
2016-05-18T05:29:05.752Z,44
2016-05-18T05:30:05.598Z,40
2016-05-18T05:31:05.615Z,44
2016-05-18T05:32:05.759Z,44
2016-05-18T05:33:05.621Z,40
2016-05-18T05:34:05.796Z,44
2016-05-18T05:35:05.501Z,44
2016-05-18T05:36:05.645Z,44
2016-05-18T05:37:05.678Z,40
2016-05-18T05:38:06.057Z,44
2016-05-18T05:39:05.872Z,44
2016-05-18T05:40:05.843Z,44
2016-05-18T05:41:05.878Z,44
2016-05-18T05:42:05.864Z,44
2016-05-18T05:43:05.711Z,44
2016-05-18T05:44:05.885Z,44
2016-05-18T05:45:05.888Z,44
2016-05-18T05:46:05.891Z,44
2016-05-18T05:47:05.924Z,44
2016-05-18T05:48:05.911Z,44
2016-05-18T05:49:05.930Z,44
2016-05-18T05:50:05.932Z,48
2016-05-18T05:51:05.966Z,44
2016-05-18T05:52:05.953Z,44
2016-05-18T05:53:05.674Z,44
2016-05-18T05:54:05.990Z,44
2016-05-18T05:55:06.008Z,44
2016-05-18T05:56:05.839Z,40
2016-05-18T05:57:06.046Z,48
2016-05-18T05:58:05.861Z,44
2016-05-18T05:59:06.019Z,48
2016-05-18T06:00:06.037Z,44
2016-05-18T06:01:05.727Z,44
2016-05-18T06:02:06.043Z,44
2016-05-18T06:03:06.077Z,44
2016-05-18T06:04:05.892Z,44
2016-05-18T06:05:06.051Z,44
2016-05-18T06:06:06.085Z,44
2016-05-18T06:07:06.087Z,48
2016-05-18T06:08:06.715Z,44
2016-05-18T06:09:06.093Z,48
2016-05-18T06:10:05.970Z,44
2016-05-18T06:11:05.958Z,48
2016-05-18T06:12:06.148Z,48
2016-05-18T06:13:06.166Z,48
2016-05-18T06:14:06.169Z,52
2016-05-18T06:15:06.155Z,52
2016-05-18T06:16:05.861Z,52
2016-05-18T06:17:06.193Z,52
2016-05-18T06:18:06.039Z,52
2016-05-18T06:19:06.057Z,48
2016-05-18T06:20:06.200Z,48
2016-05-18T06:21:06.250Z,48
2016-05-18T06:22:06.222Z,48
2016-05-18T06:23:06.286Z,52
2016-05-18T06:24:06.243Z,48
2016-05-18T06:25:06.261Z,44
2016-05-18T06:26:06.248Z,44
2016-05-18T06:27:06.282Z,52
2016-05-18T06:28:06.113Z,48
2016-05-18T06:29:06.131Z,52
2016-05-18T06:30:06.290Z,52
2016-05-18T06:31:06.324Z,44
2016-05-18T06:32:06.310Z,44
2016-05-18T06:33:06.329Z,44
2016-05-18T06:34:06.223Z,44
2016-05-18T06:35:06.366Z,44
2016-05-18T06:36:06.338Z,48
2016-05-18T06:37:06.246Z,44
2016-05-18T06:38:06.171Z,44
2016-05-18T06:39:06.392Z,48
2016-05-18T06:40:06.395Z,44
2016-05-18T06:41:06.414Z,44
2016-05-18T06:42:06.401Z,48
2016-05-18T06:43:06.278Z,48
2016-05-18T06:44:06.405Z,44
2016-05-18T06:45:06.299Z,44
2016-05-18T06:46:06.458Z,44
2016-05-18T06:47:06.336Z,44
2016-05-18T06:48:06.478Z,44
2016-05-18T06:49:06.482Z,48
2016-05-18T06:50:06.484Z,52
2016-05-18T06:51:06.487Z,56
2016-05-18T06:52:06.506Z,40
2016-05-18T06:53:06.508Z,44
2016-05-18T06:54:06.542Z,40
2016-05-18T06:55:06.514Z,56
2016-05-18T06:56:06.375Z,56
2016-05-18T06:57:06.566Z,48
2016-05-18T06:58:06.569Z,48
2016-05-18T06:59:06.430Z,52
2016-05-18T07:00:06.418Z,56
2016-05-18T07:01:06.608Z,52
2016-05-18T07:02:06.595Z,52
2016-05-18T07:03:06.613Z,56
2016-05-18T07:04:06.616Z,52
2016-05-18T07:05:06.618Z,48
2016-05-18T07:06:06.621Z,52
2016-05-18T07:07:06.624Z,44
2016-05-18T07:08:06.501Z,48
2016-05-18T07:09:06.489Z,48
2016-05-18T07:10:06.679Z,48
2016-05-18T07:11:06.666Z,52
2016-05-18T07:12:06.700Z,44
2016-05-18T07:13:06.531Z,48
2016-05-18T07:14:06.548Z,52
2016-05-18T07:15:06.709Z,60
2016-05-18T07:16:06.742Z,60
2016-05-18T07:17:06.729Z,60
2016-05-18T07:18:06.747Z,60
2016-05-18T07:19:06.594Z,60
2016-05-18T07:20:06.440Z,60
2016-05-18T07:21:06.771Z,60
2016-05-18T07:22:06.805Z,60
2016-05-18T07:23:07.027Z,56
2016-05-18T07:24:06.497Z,60
2016-05-18T07:25:07.360Z,60
2016-05-18T07:26:06.831Z,56
2016-05-18T07:27:06.647Z,56
2016-05-18T07:28:06.836Z,56
2016-05-18T07:29:06.839Z,56
2016-05-18T07:30:06.842Z,56
2016-05-18T07:31:06.705Z,56
2016-05-18T07:32:06.723Z,56
2016-05-18T07:33:06.882Z,52
2016-05-18T07:34:06.743Z,56
2016-05-18T07:35:06.730Z,56
2016-05-18T07:36:06.921Z,52
2016-05-18T07:37:06.611Z,56
2016-05-18T07:38:06.910Z,56
2016-05-18T07:39:06.820Z,56
2016-05-18T07:40:06.790Z,56
2016-05-18T07:41:06.935Z,56
2016-05-18T07:42:06.968Z,56
2016-05-18T07:43:06.956Z,56
2016-05-18T07:44:06.973Z,56
2016-05-18T07:45:06.976Z,52
2016-05-18T07:46:07.495Z,56
2016-05-18T07:47:06.826Z,56
2016-05-18T07:48:07.031Z,56
2016-05-18T07:49:07.003Z,52
2016-05-18T07:50:06.692Z,56
2016-05-18T07:51:07.039Z,56
2016-05-18T07:52:07.058Z,56
2016-05-18T07:53:06.903Z,56
2016-05-18T07:54:07.016Z,56
2016-05-18T07:55:06.863Z,60
2016-05-18T07:56:06.881Z,60
2016-05-18T07:57:07.024Z,60
2016-05-18T07:58:06.902Z,60
2016-05-18T07:59:06.888Z,60
2016-05-18T08:00:06.923Z,60
2016-05-18T08:01:06.911Z,56
2016-05-18T08:02:07.085Z,56
2016-05-18T08:03:06.916Z,56
2016-05-18T08:04:06.793Z,56
2016-05-18T08:05:07.093Z,56
2016-05-18T08:06:07.096Z,56
2016-05-18T08:07:06.941Z,60
2016-05-18T08:08:07.194Z,60
2016-05-18T08:09:07.135Z,60
2016-05-18T08:10:07.138Z,64
2016-05-18T08:11:07.156Z,64
2016-05-18T08:12:06.971Z,64
2016-05-18T08:13:07.161Z,64
2016-05-18T08:14:07.007Z,64
2016-05-18T08:15:07.135Z,64
2016-05-18T08:16:07.169Z,64
2016-05-18T08:17:07.156Z,64
2016-05-18T08:18:07.002Z,64
2016-05-18T08:19:07.161Z,64
2016-05-18T08:20:07.195Z,64
2016-05-18T08:21:07.026Z,64
2016-05-18T08:22:07.201Z,64
2016-05-18T08:23:08.064Z,60
2016-05-18T08:24:07.362Z,64
2016-05-18T08:25:07.225Z,64
2016-05-18T08:26:07.228Z,48
2016-05-18T08:27:07.245Z,36
2016-05-18T08:28:07.227Z,36
2016-05-18T08:29:07.289Z,56
2016-05-18T08:30:07.177Z,52
2016-05-18T08:31:07.393Z,56
2016-05-18T08:32:07.423Z,52
2016-05-18T08:33:07.476Z,56
2016-05-18T08:34:07.619Z,60
2016-05-18T08:35:07.232Z,56
2016-05-18T08:36:07.530Z,56
2016-05-18T08:37:07.581Z,60
2016-05-18T08:38:07.627Z,60
2016-05-18T08:39:07.619Z,60
2016-05-18T08:40:07.612Z,60
2016-05-18T08:41:07.635Z,60
2016-05-18T08:42:07.643Z,60
2016-05-18T08:43:07.667Z,60
2016-05-18T08:44:07.500Z,56
2016-05-18T08:45:07.677Z,56
2016-05-18T08:46:07.682Z,60
2016-05-18T08:47:07.765Z,64
2016-05-18T08:48:07.535Z,64
2016-05-18T08:49:07.742Z,64
2016-05-18T08:50:07.729Z,64
2016-05-18T08:51:07.607Z,64
2016-05-18T08:52:07.424Z,68
2016-05-18T08:53:08.052Z,68
2016-05-18T08:54:07.758Z,64
2016-05-18T08:55:07.792Z,68
2016-05-18T08:56:07.639Z,60
2016-05-18T08:57:07.641Z,52
2016-05-18T08:58:07.659Z,68
2016-05-18T08:59:07.646Z,64
2016-05-18T09:00:07.821Z,68
2016-05-18T09:01:07.839Z,40
2016-05-18T09:02:07.701Z,40
2016-05-18T09:03:07.844Z,36
2016-05-18T09:04:07.879Z,68
2016-05-18T09:05:07.882Z,72
2016-05-18T09:06:07.868Z,60
2016-05-18T09:07:07.730Z,44
2016-05-18T09:08:07.951Z,40
2016-05-18T09:09:07.735Z,68
2016-05-18T09:10:07.895Z,68
2016-05-18T09:11:07.929Z,44
2016-05-18T09:12:07.931Z,40
2016-05-18T09:13:07.793Z,56
2016-05-18T09:14:07.968Z,36
2016-05-18T09:15:07.939Z,36
2016-05-18T09:16:07.973Z,32
2016-05-18T09:17:07.976Z,36
2016-05-18T09:18:07.838Z,36
2016-05-18T09:19:07.997Z,36
2016-05-18T09:20:07.984Z,40
2016-05-18T09:21:07.877Z,40
2016-05-18T09:22:08.005Z,36
2016-05-18T09:23:08.773Z,40
2016-05-18T09:24:08.026Z,40
2016-05-18T09:25:08.028Z,36
2016-05-18T09:26:07.891Z,36
2016-05-18T09:27:08.097Z,64
2016-05-18T09:28:08.083Z,52
2016-05-18T09:29:08.086Z,44
2016-05-18T09:30:07.948Z,72
2016-05-18T09:31:08.122Z,44
2016-05-18T09:32:07.797Z,40
2016-05-18T09:33:07.972Z,40
2016-05-18T09:34:08.146Z,40
2016-05-18T09:35:08.165Z,44
2016-05-18T09:36:07.840Z,76
2016-05-18T09:37:08.170Z,80
2016-05-18T09:38:08.345Z,84
2016-05-18T09:39:08.191Z,80
2016-05-18T09:40:07.866Z,52
2016-05-18T09:41:08.196Z,92
2016-05-18T09:42:08.059Z,68
2016-05-18T09:43:08.233Z,88
2016-05-18T09:44:08.236Z,96
2016-05-18T09:45:08.223Z,96
2016-05-18T09:46:08.242Z,96
2016-05-18T09:47:08.244Z,68
2016-05-18T09:48:08.278Z,68
2016-05-18T09:49:08.250Z,60
2016-05-18T09:50:08.298Z,68
2016-05-18T09:51:08.286Z,84
2016-05-18T09:52:08.320Z,60
2016-05-18T09:53:08.198Z,72
2016-05-18T09:54:08.169Z,92
2016-05-18T09:55:08.312Z,64
2016-05-18T09:56:08.347Z,68
2016-05-18T09:57:08.381Z,56
2016-05-18T09:58:08.211Z,56
2016-05-18T09:59:08.370Z,84
2016-05-18T10:00:08.388Z,88
2016-05-18T10:01:08.391Z,80
2016-05-18T10:02:08.378Z,92
2016-05-18T10:03:08.413Z,92
2016-05-18T10:04:08.430Z,92
2016-05-18T10:05:08.418Z,96
2016-05-18T10:06:08.467Z,88
2016-05-18T10:07:08.282Z,92
2016-05-18T10:08:08.816Z,92
2016-05-18T10:09:08.491Z,96
2016-05-18T10:10:08.462Z,96
2016-05-18T10:11:08.480Z,92
2016-05-18T10:12:08.515Z,88
2016-05-18T10:13:08.485Z,88
2016-05-18T10:14:08.520Z,84
2016-05-18T10:15:08.507Z,84
2016-05-18T10:16:08.525Z,84
2016-05-18T10:17:08.559Z,84
2016-05-18T10:18:08.578Z,80
2016-05-18T10:19:08.581Z,80
2016-05-18T10:20:08.598Z,80
2016-05-18T10:21:08.461Z,80
2016-05-18T10:22:08.620Z,80
2016-05-18T10:23:08.434Z,80
2016-05-18T10:24:08.469Z,80
2016-05-18T10:25:08.503Z,44
2016-05-18T10:26:08.645Z,44
2016-05-18T10:27:08.633Z,72
2016-05-18T10:28:08.667Z,84
2016-05-18T10:29:08.653Z,84
2016-05-18T10:30:08.672Z,56
2016-05-18T10:31:08.691Z,84
2016-05-18T10:32:08.522Z,84
2016-05-18T10:33:08.696Z,88
2016-05-18T10:34:08.574Z,88
2016-05-18T10:35:08.577Z,88
2016-05-18T10:36:08.752Z,88
2016-05-18T10:37:08.738Z,88
2016-05-18T10:38:08.599Z,88
2016-05-18T10:39:08.977Z,48
2016-05-18T10:40:08.590Z,88
2016-05-18T10:41:08.796Z,68
2016-05-18T10:42:08.799Z,44
2016-05-18T10:43:08.816Z,40
2016-05-18T10:44:08.804Z,40
2016-05-18T10:45:08.666Z,84
2016-05-18T10:46:08.824Z,84
2016-05-18T10:47:08.687Z,84
2016-05-18T10:48:08.877Z,84
2016-05-18T10:49:08.865Z,84
2016-05-18T10:50:08.867Z,84
2016-05-18T10:51:08.744Z,84
2016-05-18T10:52:08.716Z,84
2016-05-18T10:53:09.547Z,52
2016-05-18T10:54:08.628Z,88
2016-05-18T10:55:08.943Z,60
2016-05-18T10:56:08.914Z,92
2016-05-18T10:57:08.948Z,88
2016-05-18T10:58:08.951Z,44
2016-05-18T10:59:08.813Z,48
2016-05-18T11:00:08.956Z,48
2016-05-18T11:01:08.959Z,44
2016-05-18T11:02:08.837Z,88
2016-05-18T11:03:08.855Z,88
2016-05-18T11:04:08.858Z,84
2016-05-18T11:05:09.016Z,84
2016-05-18T11:06:09.035Z,80
2016-05-18T11:07:09.038Z,80
2016-05-18T11:08:08.744Z,80
2016-05-18T11:09:09.074Z,84
2016-05-18T11:10:09.076Z,84
2016-05-18T11:11:09.080Z,84
2016-05-18T11:12:09.113Z,44
2016-05-18T11:13:08.944Z,36
2016-05-18T11:14:09.088Z,84
2016-05-18T11:15:08.965Z,84
2016-05-18T11:16:09.123Z,84
2016-05-18T11:17:09.127Z,84
2016-05-18T11:18:08.989Z,84
2016-05-18T11:19:09.179Z,80
2016-05-18T11:20:09.165Z,84
2016-05-18T11:21:09.012Z,80
2016-05-18T11:22:09.203Z,84
2016-05-18T11:23:09.221Z,80
2016-05-18T11:24:08.926Z,84
2016-05-18T11:25:09.070Z,44
2016-05-18T11:26:09.073Z,44
2016-05-18T11:27:09.075Z,84
2016-05-18T11:28:09.251Z,84
2016-05-18T11:29:09.237Z,88
2016-05-18T11:30:09.146Z,84
2016-05-18T11:31:08.961Z,88
2016-05-18T11:32:09.292Z,84
2016-05-18T11:33:09.310Z,80
2016-05-18T11:34:09.297Z,80
2016-05-18T11:35:08.988Z,80
2016-05-18T11:36:09.319Z,84
2016-05-18T11:37:09.336Z,80
2016-05-18T11:38:09.589Z,84
2016-05-18T11:39:08.889Z,80
2016-05-18T11:40:09.376Z,80
2016-05-18T11:41:09.363Z,84
2016-05-18T11:42:09.397Z,80
2016-05-18T11:43:09.244Z,80
2016-05-18T11:44:09.246Z,80
2016-05-18T11:45:09.405Z,68
2016-05-18T11:46:09.439Z,40
2016-05-18T11:47:09.426Z,44
2016-05-18T11:48:09.460Z,48
2016-05-18T11:49:09.337Z,80
2016-05-18T11:50:09.482Z,80
2016-05-18T11:51:09.468Z,80
2016-05-18T11:52:09.314Z,80
2016-05-18T11:53:09.505Z,80
2016-05-18T11:54:09.211Z,72
2016-05-18T11:55:09.370Z,48
2016-05-18T11:56:09.544Z,76
2016-05-18T11:57:09.562Z,32
2016-05-18T11:58:09.534Z,32
2016-05-18T11:59:09.567Z,56
2016-05-18T12:00:09.570Z,64
2016-05-18T12:01:09.589Z,48
2016-05-18T12:02:09.575Z,72
2016-05-18T12:03:09.453Z,76
2016-05-18T12:04:09.597Z,80
2016-05-18T12:05:09.459Z,76
2016-05-18T12:06:09.633Z,76
2016-05-18T12:07:09.652Z,76
2016-05-18T12:08:09.733Z,76
2016-05-18T12:09:09.501Z,76
2016-05-18T12:10:09.535Z,76
2016-05-18T12:11:09.538Z,76
2016-05-18T12:12:09.385Z,80
2016-05-18T12:13:09.715Z,80
2016-05-18T12:14:09.702Z,80
2016-05-18T12:15:09.595Z,80
2016-05-18T12:16:09.738Z,80
2016-05-18T12:17:09.741Z,80
2016-05-18T12:18:09.759Z,76
2016-05-18T12:19:09.794Z,76
2016-05-18T12:20:09.765Z,80
2016-05-18T12:21:09.814Z,76
2016-05-18T12:22:09.490Z,76
2016-05-18T12:23:09.507Z,76
2016-05-18T12:24:10.447Z,76
2016-05-18T12:25:11.326Z,80
2016-05-18T12:26:09.843Z,80
2016-05-18T12:27:09.846Z,76
2016-05-18T12:28:09.708Z,60
2016-05-18T12:29:09.851Z,76
2016-05-18T12:30:13.839Z,76
2016-05-18T12:31:09.919Z,80
2016-05-18T12:32:09.891Z,80
2016-05-18T12:33:09.941Z,80
2016-05-18T12:34:09.943Z,84
2016-05-18T12:35:09.962Z,80
2016-05-18T12:36:09.777Z,76
2016-05-18T12:37:09.810Z,80
2016-05-18T12:38:09.970Z,72
2016-05-18T12:39:09.988Z,80
2016-05-18T12:40:09.990Z,76
2016-05-18T12:41:10.008Z,76
2016-05-18T12:42:09.996Z,76
2016-05-18T12:43:10.077Z,76
2016-05-18T12:44:10.032Z,72
2016-05-18T12:45:09.879Z,76
2016-05-18T12:46:10.038Z,76
2016-05-18T12:47:10.072Z,80
2016-05-18T12:48:09.902Z,76
2016-05-18T12:49:10.108Z,80
2016-05-18T12:50:10.096Z,80
2016-05-18T12:51:10.145Z,80
2016-05-18T12:52:09.773Z,80
2016-05-18T12:53:10.010Z,80
2016-05-18T12:54:10.247Z,68
2016-05-18T12:55:10.140Z,80
2016-05-18T12:56:10.003Z,80
2016-05-18T12:57:10.177Z,76
2016-05-18T12:58:10.008Z,80
2016-05-18T12:59:09.870Z,80
2016-05-18T13:00:16.481Z,76
2016-05-18T13:01:10.047Z,76
2016-05-18T13:02:10.206Z,76
2016-05-18T13:03:10.084Z,76
2016-05-18T13:04:10.242Z,76
2016-05-18T13:05:13.136Z,76
2016-05-18T13:06:10.264Z,76
2016-05-18T13:07:10.283Z,76
2016-05-18T13:08:10.628Z,76
2016-05-18T13:09:10.288Z,76
2016-05-18T13:10:12.837Z,76
2016-05-18T13:11:10.168Z,76
2016-05-18T13:12:10.327Z,76
2016-05-18T13:13:10.188Z,80
2016-05-18T13:14:10.347Z,80
2016-05-18T13:15:10.350Z,80
2016-05-18T13:16:10.228Z,80
2016-05-18T13:17:10.402Z,84
2016-05-18T13:18:10.390Z,80
2016-05-18T13:19:10.205Z,80
2016-05-18T13:20:14.660Z,72
2016-05-18T13:21:10.429Z,68
2016-05-18T13:22:10.104Z,76
2016-05-18T13:23:11.793Z,76
2016-05-18T13:24:10.468Z,72
2016-05-18T13:25:13.189Z,80
2016-05-18T13:26:10.317Z,80
2016-05-18T13:27:10.336Z,76
2016-05-18T13:28:10.479Z,80
2016-05-18T13:29:10.512Z,76
2016-05-18T13:30:10.531Z,80
2016-05-18T13:31:10.517Z,76
2016-05-18T13:32:10.240Z,80
2016-05-18T13:33:10.398Z,84
2016-05-18T13:34:10.401Z,72
2016-05-18T13:35:11.248Z,84
2016-05-18T13:36:10.579Z,84
2016-05-18T13:37:10.581Z,80
2016-05-18T13:38:10.616Z,80
2016-05-18T13:39:10.602Z,52
2016-05-18T13:40:14.074Z,64
2016-05-18T13:41:10.639Z,48
2016-05-18T13:42:10.657Z,60
2016-05-18T13:43:10.644Z,52
2016-05-18T13:44:10.678Z,60
2016-05-18T13:45:10.525Z,76
2016-05-18T13:46:10.699Z,80
2016-05-18T13:47:10.718Z,76
2016-05-18T13:48:10.564Z,76
2016-05-18T13:49:10.707Z,72
2016-05-18T13:50:16.507Z,68
2016-05-18T13:51:10.729Z,64
2016-05-18T13:52:10.793Z,68
2016-05-18T13:53:11.015Z,68
2016-05-18T13:54:10.626Z,68
2016-05-18T13:55:10.615Z,68
2016-05-18T13:56:10.492Z,64
2016-05-18T13:57:10.823Z,72
2016-05-18T13:58:10.825Z,80
2016-05-18T13:59:10.828Z,80
2016-05-18T14:00:10.831Z,84
2016-05-18T14:01:10.693Z,76
2016-05-18T14:02:10.883Z,96
2016-05-18T14:03:10.870Z,96
2016-05-18T14:04:10.889Z,92
2016-05-18T14:05:11.594Z,88
2016-05-18T14:06:10.894Z,88
2016-05-18T14:07:10.928Z,84
2016-05-18T14:08:11.212Z,80
2016-05-18T14:09:10.792Z,60
2016-05-18T14:10:15.638Z,72
2016-05-18T14:11:10.813Z,68
2016-05-18T14:12:10.958Z,72
2016-05-18T14:13:10.975Z,72
2016-05-18T14:14:10.852Z,76
2016-05-18T14:15:14.543Z,80
2016-05-18T14:16:10.999Z,80
2016-05-18T14:17:11.033Z,76
2016-05-18T14:18:10.895Z,80
2016-05-18T14:19:10.897Z,80
2016-05-18T14:20:11.104Z,84
2016-05-18T14:21:11.074Z,80
2016-05-18T14:22:11.077Z,80
2016-05-18T14:23:10.815Z,84
2016-05-18T14:24:11.082Z,80